NZWN/WLG METAR and TAF weather

Enter ICAO airport designator
Station Type Date Time Source
NZWN METAR 2021/07/29 01:00 UTC NOAA

NZWN 290100Z AUTO 36016KT 9999 FEW024/// SCT038/// 14/10 Q1015 NOSIG


Station Type Date Time Source
NZWN Decoded METAR 2021/07/29 01:00 UTC NOAA

Wellington Airport, New Zealand (NZWN) 41-20S 174-48E 8M
Jul 28, 2021 - 09:00 PM EDT / 2021.07.29 0100 UTC
Wind: from the N (360 degrees) at 18 MPH (16 KT):0
Visibility: greater than 7 mile(s):0
Sky conditions: partly cloudy
Temperature: 57 F (14 C)
Dew Point: 50 F (10 C)
Relative Humidity: 76%
Pressure (altimeter): 29.97 in. Hg (1015 hPa)
ob: NZWN 290100Z AUTO 36016KT 9999 FEW024/// SCT038/// 14/10 Q1015 NOSIG
cycle: 1

Station Type Date Time Source
NZWN TAF 2021/07/28 18:06 UTC NOAA

TAF NZWN 281704Z 2818/2918 36010KT 9999 SCT030

Example: see airport list